sensor_id;sensor_type;location;lat;lon;timestamp;pressure;altitude;pressure_sealevel;temperature;humidity
77706;BME280;66874;45.274;5.880;2023-03-14T00:01:22;98169.75;;;11.01;79.54
77706;BME280;66874;45.274;5.880;2023-03-14T00:03:49;98150.63;;;10.99;80.16
77706;BME280;66874;45.274;5.880;2023-03-14T00:06:15;98148.88;;;10.99;79.54
77706;BME280;66874;45.274;5.880;2023-03-14T00:08:41;98168.22;;;10.95;79.73
77706;BME280;66874;45.274;5.880;2023-03-14T00:11:13;98184.91;;;10.91;79.68
77706;BME280;66874;45.274;5.880;2023-03-14T00:13:38;98179.94;;;10.84;79.83
77706;BME280;66874;45.274;5.880;2023-03-14T00:16:06;98153.91;;;10.81;79.23
77706;BME280;66874;45.274;5.880;2023-03-14T00:18:32;98129.34;;;10.85;78.53
77706;BME280;66874;45.274;5.880;2023-03-14T00:20:59;98122.34;;;10.85;78.34
77706;BME280;66874;45.274;5.880;2023-03-14T00:23:24;98112.88;;;10.81;78.49
77706;BME280;66874;45.274;5.880;2023-03-14T00:25:50;98106.94;;;10.76;78.76
77706;BME280;66874;45.274;5.880;2023-03-14T00:28:15;98121.91;;;10.72;78.73
77706;BME280;66874;45.274;5.880;2023-03-14T03:00:29;98054.16;;;9.60;80.79
77706;BME280;66874;45.274;5.880;2023-03-14T03:02:55;98044.72;;;9.56;80.86
77706;BME280;66874;45.274;5.880;2023-03-14T03:05:21;98042.19;;;9.53;80.79
77706;BME280;66874;45.274;5.880;2023-03-14T03:07:46;98040.53;;;9.50;80.41
77706;BME280;66874;45.274;5.880;2023-03-14T03:10:12;98032.81;;;9.47;80.83
77706;BME280;66874;45.274;5.880;2023-03-14T03:12:37;98035.41;;;9.47;80.84
77706;BME280;66874;45.274;5.880;2023-03-14T03:15:03;98037.13;;;9.48;80.90
77706;BME280;66874;45.274;5.880;2023-03-14T03:17:28;98028.44;;;9.48;80.83
77706;BME280;66874;45.274;5.880;2023-03-14T03:19:54;98035.56;;;9.43;81.09
77706;BME280;66874;45.274;5.880;2023-03-14T03:22:19;98027.91;;;9.37;80.79
77706;BME280;66874;45.274;5.880;2023-03-14T03:24:44;98022.00;;;9.30;80.92
77706;BME280;66874;45.274;5.880;2023-03-14T03:27:10;98026.44;;;9.28;80.98
77706;BME280;66874;45.274;5.880;2023-03-14T03:29:35;98014.25;;;9.28;80.81
77706;BME280;66874;45.274;5.880;2023-03-14T06:30:29;97915.13;;;8.41;84.80
77706;BME280;66874;45.274;5.880;2023-03-14T06:32:54;97916.13;;;8.37;84.28
77706;BME280;66874;45.274;5.880;2023-03-14T06:35:21;97915.25;;;8.38;84.11
77706;BME280;66874;45.274;5.880;2023-03-14T06:37:47;97913.44;;;8.40;83.75
77706;BME280;66874;45.274;5.880;2023-03-14T06:40:12;97913.28;;;8.45;83.23
77706;BME280;66874;45.274;5.880;2023-03-14T06:42:42;97908.78;;;8.51;83.89
77706;BME280;66874;45.274;5.880;2023-03-14T06:45:08;97919.91;;;8.56;85.22
77706;BME280;66874;45.274;5.880;2023-03-14T06:47:34;97928.63;;;8.55;85.33
77706;BME280;66874;45.274;5.880;2023-03-14T06:49:59;97920.81;;;8.55;85.32
77706;BME280;66874;45.274;5.880;2023-03-14T06:52:24;97926.97;;;8.53;85.35
77706;BME280;66874;45.274;5.880;2023-03-14T06:54:50;97924.50;;;8.48;85.25
77706;BME280;66874;45.274;5.880;2023-03-14T06:57:15;97929.94;;;8.41;85.71
77706;BME280;66874;45.274;5.880;2023-03-14T06:59:40;97929.19;;;8.36;85.81
77706;BME280;66874;45.274;5.880;2023-03-14T07:02:13;97940.50;;;8.35;85.89
77706;BME280;66874;45.274;5.880;2023-03-14T07:04:38;97943.03;;;8.38;86.37
77706;BME280;66874;45.274;5.880;2023-03-14T07:07:04;97939.56;;;8.39;85.95
77706;BME280;66874;45.274;5.880;2023-03-14T07:09:29;97944.56;;;8.45;85.65
77706;BME280;66874;45.274;5.880;2023-03-14T07:11:55;97945.41;;;8.45;85.36
77706;BME280;66874;45.274;5.880;2023-03-14T07:14:20;97943.69;;;8.46;85.40
77706;BME280;66874;45.274;5.880;2023-03-14T07:16:46;97936.81;;;8.43;85.60
77706;BME280;66874;45.274;5.880;2023-03-14T07:19:11;97943.63;;;8.47;84.92
77706;BME280;66874;45.274;5.880;2023-03-14T07:21:36;97947.81;;;8.53;84.53
77706;BME280;66874;45.274;5.880;2023-03-14T07:24:02;97949.41;;;8.59;85.16
77706;BME280;66874;45.274;5.880;2023-03-14T07:26:28;97948.41;;;8.63;85.21
77706;BME280;66874;45.274;5.880;2023-03-14T07:28:53;97956.19;;;8.64;85.47
77706;BME280;66874;45.274;5.880;2023-03-14T07:31:19;97961.50;;;8.61;85.80
77706;BME280;66874;45.274;5.880;2023-03-14T07:33:44;97958.16;;;8.56;85.93
77706;BME280;66874;45.274;5.880;2023-03-14T07:36:10;97968.50;;;8.59;86.17
77706;BME280;66874;45.274;5.880;2023-03-14T07:38:35;97969.34;;;8.60;85.90
77706;BME280;66874;45.274;5.880;2023-03-14T07:41:03;97969.50;;;8.55;86.17
77706;BME280;66874;45.274;5.880;2023-03-14T07:43:29;97976.47;;;8.53;86.30
77706;BME280;66874;45.274;5.880;2023-03-14T07:45:54;97987.72;;;8.55;86.53
77706;BME280;66874;45.274;5.880;2023-03-14T07:48:20;97990.34;;;8.55;86.14
77706;BME280;66874;45.274;5.880;2023-03-14T07:50:50;97994.72;;;8.53;86.13
77706;BME280;66874;45.274;5.880;2023-03-14T07:53:16;97996.47;;;8.52;86.60
77706;BME280;66874;45.274;5.880;2023-03-14T07:55:42;98003.44;;;8.53;86.52
77706;BME280;66874;45.274;5.880;2023-03-14T07:58:07;98018.88;;;8.60;86.40
77706;BME280;66874;45.274;5.880;2023-03-14T08:00:32;98010.91;;;8.64;86.24
77706;BME280;66874;45.274;5.880;2023-03-14T08:02:58;98017.03;;;8.63;86.23
77706;BME280;66874;45.274;5.880;2023-03-14T08:05:23;98020.69;;;8.58;85.86
77706;BME280;66874;45.274;5.880;2023-03-14T08:07:49;98033.03;;;8.51;85.84
77706;BME280;66874;45.274;5.880;2023-03-14T08:10:14;98023.59;;;8.47;86.08
77706;BME280;66874;45.274;5.880;2023-03-14T08:12:46;98035.78;;;8.45;86.05
77706;BME280;66874;45.274;5.880;2023-03-14T08:15:11;98039.34;;;8.42;85.84
77706;BME280;66874;45.274;5.880;2023-03-14T08:17:37;98045.59;;;8.35;85.82
77706;BME280;66874;45.274;5.880;2023-03-14T08:20:02;98049.91;;;8.36;85.90
77706;BME280;66874;45.274;5.880;2023-03-14T08:22:31;98060.31;;;8.38;85.96
77706;BME280;66874;45.274;5.880;2023-03-14T08:24:57;98058.53;;;8.40;85.92
77706;BME280;66874;45.274;5.880;2023-03-14T08:27:22;98073.41;;;8.35;86.13
77706;BME280;66874;45.274;5.880;2023-03-14T08:29:48;98074.28;;;8.33;86.23
77706;BME280;66874;45.274;5.880;2023-03-14T08:32:13;98076.88;;;8.33;86.22
77706;BME280;66874;45.274;5.880;2023-03-14T08:34:39;98087.41;;;8.30;85.94
77706;BME280;66874;45.274;5.880;2023-03-14T08:37:05;98091.94;;;8.22;86.04
77706;BME280;66874;45.274;5.880;2023-03-14T08:39:30;98098.16;;;8.17;86.03
77706;BME280;66874;45.274;5.880;2023-03-14T08:41:55;98100.84;;;8.14;86.34
77706;BME280;66874;45.274;5.880;2023-03-14T08:44:21;98108.69;;;8.12;86.69
77706;BME280;66874;45.274;5.880;2023-03-14T08:46:46;98105.25;;;8.10;86.53
77706;BME280;66874;45.274;5.880;2023-03-14T08:49:12;98115.63;;;8.13;85.92
77706;BME280;66874;45.274;5.880;2023-03-14T08:51:37;98126.94;;;8.12;85.72
77706;BME280;66874;45.274;5.880;2023-03-14T08:54:02;98133.00;;;8.13;85.83
77706;BME280;66874;45.274;5.880;2023-03-14T08:56:28;98125.22;;;8.11;86.05
77706;BME280;66874;45.274;5.880;2023-03-14T08:58:53;98126.09;;;8.10;86.71
77706;BME280;66874;45.274;5.880;2023-03-14T09:01:19;98128.69;;;8.12;86.65
77706;BME280;66874;45.274;5.880;2023-03-14T09:03:44;98141.59;;;8.16;87.46
77706;BME280;66874;45.274;5.880;2023-03-14T09:06:11;98140.56;;;8.23;86.87
77706;BME280;66874;45.274;5.880;2023-03-14T09:08:36;98145.66;;;8.28;86.74
77706;BME280;66874;45.274;5.880;2023-03-14T09:11:02;98145.88;;;8.19;87.02
77706;BME280;66874;45.274;5.880;2023-03-14T09:13:27;98158.13;;;8.15;86.99
77706;BME280;66874;45.274;5.880;2023-03-14T09:15:54;98164.25;;;8.13;87.22
77706;BME280;66874;45.274;5.880;2023-03-14T09:18:20;98176.38;;;8.14;87.38
77706;BME280;66874;45.274;5.880;2023-03-14T09:20:45;98180.75;;;8.13;87.37
77706;BME280;66874;45.274;5.880;2023-03-14T09:23:11;98189.41;;;8.14;87.24
77706;BME280;66874;45.274;5.880;2023-03-14T09:25:36;98191.09;;;8.15;87.47
77706;BME280;66874;45.274;5.880;2023-03-14T09:28:01;98193.72;;;8.15;87.60
77706;BME280;66874;45.274;5.880;2023-03-14T09:30:27;98205.81;;;8.17;87.67
77706;BME280;66874;45.274;5.880;2023-03-14T09:32:52;98211.09;;;8.16;87.61
77706;BME280;66874;45.274;5.880;2023-03-14T09:35:18;98222.34;;;8.16;88.15
77706;BME280;66874;45.274;5.880;2023-03-14T09:37:43;98222.19;;;8.22;88.17
77706;BME280;66874;45.274;5.880;2023-03-14T09:40:14;98233.41;;;8.26;87.90
77706;BME280;66874;45.274;5.880;2023-03-14T09:42:40;98243.81;;;8.26;87.93
77706;BME280;66874;45.274;5.880;2023-03-14T09:45:12;98249.81;;;8.31;88.01
77706;BME280;66874;45.274;5.880;2023-03-14T09:47:40;98260.22;;;8.31;88.30
77706;BME280;66874;45.274;5.880;2023-03-14T09:50:13;98256.78;;;8.29;88.13
77706;BME280;66874;45.274;5.880;2023-03-14T09:52:40;98262.84;;;8.29;88.28
77706;BME280;66874;45.274;5.880;2023-03-14T09:55:20;98270.66;;;8.29;88.59
77706;BME280;66874;45.274;5.880;2023-03-14T09:57:47;98293.28;;;8.29;88.47
77706;BME280;66874;45.274;5.880;2023-03-14T10:00:20;98292.53;;;8.24;88.33
77706;BME280;66874;45.274;5.880;2023-03-14T10:03:00;98294.34;;;8.20;88.70
77706;BME280;66874;45.274;5.880;2023-03-14T10:05:39;98301.25;;;8.21;88.64
77706;BME280;66874;45.274;5.880;2023-03-14T10:08:04;98309.06;;;8.23;88.60
77706;BME280;66874;45.274;5.880;2023-03-14T10:10:31;98314.28;;;8.23;88.64
77706;BME280;66874;45.274;5.880;2023-03-14T10:13:20;98324.59;;;8.26;88.33
77706;BME280;66874;45.274;5.880;2023-03-14T10:15:55;98324.59;;;8.27;88.30
77706;BME280;66874;45.274;5.880;2023-03-14T10:18:23;98339.38;;;8.27;88.28
77706;BME280;66874;45.274;5.880;2023-03-14T10:21:01;98341.13;;;8.25;88.08
77706;BME280;66874;45.274;5.880;2023-03-14T10:23:29;98357.63;;;8.25;88.04
77706;BME280;66874;45.274;5.880;2023-03-14T10:26:02;98365.44;;;8.25;88.05
77706;BME280;66874;45.274;5.880;2023-03-14T10:28:39;98365.44;;;8.27;88.13
77706;BME280;66874;45.274;5.880;2023-03-14T10:31:06;98380.16;;;8.28;87.76
77706;BME280;66874;45.274;5.880;2023-03-14T10:33:34;98385.38;;;8.28;87.59
77706;BME280;66874;45.274;5.880;2023-03-14T10:38:34;98406.06;;;8.36;87.31
77706;BME280;66874;45.274;5.880;2023-03-14T10:41:01;98403.38;;;8.42;87.50
77706;BME280;66874;45.274;5.880;2023-03-14T10:43:31;98407.63;;;8.44;87.29
77706;BME280;66874;45.274;5.880;2023-03-14T10:46:10;98417.16;;;8.47;86.87
77706;BME280;66874;45.274;5.880;2023-03-14T10:48:38;98426.69;;;8.48;86.35
77706;BME280;66874;45.274;5.880;2023-03-14T10:56:18;98430.94;;;8.53;85.96
77706;BME280;66874;45.274;5.880;2023-03-14T10:58:48;98438.69;;;8.55;86.07
77706;BME280;66874;45.274;5.880;2023-03-14T11:01:36;98444.66;;;8.60;86.24
77706;BME280;66874;45.274;5.880;2023-03-14T11:07:47;98438.16;;;8.79;85.81
77706;BME280;66874;45.274;5.880;2023-03-14T11:10:03;98452.03;;;8.82;84.90
77706;BME280;66874;45.274;5.880;2023-03-14T11:15:41;98456.34;;;8.83;85.10
77706;BME280;66874;45.274;5.880;2023-03-14T11:20:59;98466.50;;;8.95;85.25
77706;BME280;66874;45.274;5.880;2023-03-14T11:23:36;98466.34;;;9.02;85.46
77706;BME280;66874;45.274;5.880;2023-03-14T11:29:39;98461.56;;;9.21;85.30
77706;BME280;66874;45.274;5.880;2023-03-14T11:31:40;98454.38;;;9.31;85.30
77706;BME280;66874;45.274;5.880;2023-03-14T11:34:20;98451.44;;;9.45;85.14
77706;BME280;66874;45.274;5.880;2023-03-14T11:36:53;98445.81;;;9.62;85.10
77706;BME280;66874;45.274;5.880;2023-03-14T11:39:21;98445.38;;;9.78;84.59
77706;BME280;66874;45.274;5.880;2023-03-14T11:41:51;98457.22;;;9.92;84.15
77706;BME280;66874;45.274;5.880;2023-03-14T11:44:38;98456.19;;;9.97;83.74
77706;BME280;66874;45.274;5.880;2023-03-14T11:48:13;98467.56;;;9.95;82.48
77706;BME280;66874;45.274;5.880;2023-03-14T11:50:23;98464.09;;;9.94;83.27
77706;BME280;66874;45.274;5.880;2023-03-14T11:52:55;98476.31;;;9.94;83.28
77706;BME280;66874;45.274;5.880;2023-03-14T11:55:32;98478.97;;;9.92;83.35
77706;BME280;66874;45.274;5.880;2023-03-14T11:58:15;98483.50;;;9.86;83.29
77706;BME280;66874;45.274;5.880;2023-03-14T12:00:43;98489.88;;;9.74;83.27
77706;BME280;66874;45.274;5.880;2023-03-14T12:03:31;98489.41;;;9.58;82.66
77706;BME280;66874;45.274;5.880;2023-03-14T12:08:52;98486.25;;;9.07;81.43
77706;BME280;66874;45.274;5.880;2023-03-14T12:12:02;98490.94;;;8.91;81.38
77706;BME280;66874;45.274;5.880;2023-03-14T12:14:52;98484.25;;;8.79;81.48
77706;BME280;66874;45.274;5.880;2023-03-14T12:17:21;98487.81;;;8.75;81.30
77706;BME280;66874;45.274;5.880;2023-03-14T12:20:00;98484.28;;;8.77;80.29
77706;BME280;66874;45.274;5.880;2023-03-14T12:22:28;98484.97;;;8.86;79.45
77706;BME280;66874;45.274;5.880;2023-03-14T12:25:16;98483.03;;;8.95;78.22
77706;BME280;66874;45.274;5.880;2023-03-14T12:40:39;98491.59;;;11.59;78.18
77706;BME280;66874;45.274;5.880;2023-03-14T12:43:26;98488.69;;;11.40;78.75
77706;BME280;66874;45.274;5.880;2023-03-14T12:48:44;98493.59;;;11.51;79.10
77706;BME280;66874;45.274;5.880;2023-03-14T12:51:18;98497.50;;;11.65;79.03
77706;BME280;66874;45.274;5.880;2023-03-14T12:53:53;98491.00;;;11.77;78.43
77706;BME280;66874;45.274;5.880;2023-03-14T12:59:33;98471.66;;;13.03;77.71
77706;BME280;66874;45.274;5.880;2023-03-14T13:04:35;98467.91;;;13.09;76.62
77706;BME280;66874;45.274;5.880;2023-03-14T13:07:03;98478.38;;;12.87;76.96
77706;BME280;66874;45.274;5.880;2023-03-14T13:11:56;98473.41;;;13.26;76.55
77706;BME280;66874;45.274;5.880;2023-03-14T13:14:27;98459.28;;;14.13;75.89
77706;BME280;66874;45.274;5.880;2023-03-14T13:16:53;98448.09;;;14.87;74.99
77706;BME280;66874;45.274;5.880;2023-03-14T13:19:22;98436.63;;;15.79;73.36
77706;BME280;66874;45.274;5.880;2023-03-14T13:21:50;98428.50;;;16.19;71.97
77706;BME280;66874;45.274;5.880;2023-03-14T13:24:24;98411.88;;;16.50;71.22
77706;BME280;66874;45.274;5.880;2023-03-14T13:26:53;98402.06;;;17.01;69.93
77706;BME280;66874;45.274;5.880;2023-03-14T13:29:22;98389.44;;;16.74;68.36
77706;BME280;66874;45.274;5.880;2023-03-14T13:32:21;98401.19;;;15.85;68.45
77706;BME280;66874;45.274;5.880;2023-03-14T13:34:47;98396.84;;;15.13;68.70
77706;BME280;66874;45.274;5.880;2023-03-14T13:37:19;98411.34;;;14.46;68.75
77706;BME280;66874;45.274;5.880;2023-03-14T13:39:52;98430.88;;;14.01;69.12
77706;BME280;66874;45.274;5.880;2023-03-14T13:42:21;98433.94;;;13.70;69.58
77706;BME280;66874;45.274;5.880;2023-03-14T13:44:46;98437.84;;;13.39;70.05
77706;BME280;66874;45.274;5.880;2023-03-14T13:47:17;98440.56;;;13.14;70.19
77706;BME280;66874;45.274;5.880;2023-03-14T13:49:44;98450.13;;;12.93;70.52
77706;BME280;66874;45.274;5.880;2023-03-14T13:52:30;98451.63;;;12.77;70.82
77706;BME280;66874;45.274;5.880;2023-03-14T13:54:57;98449.59;;;12.62;71.29
77706;BME280;66874;45.274;5.880;2023-03-14T13:57:24;98452.81;;;12.45;70.99
77706;BME280;66874;45.274;5.880;2023-03-14T14:00:02;98460.44;;;12.28;71.09
77706;BME280;66874;45.274;5.880;2023-03-14T14:02:33;98466.03;;;12.18;71.28
77706;BME280;66874;45.274;5.880;2023-03-14T14:04:59;98475.31;;;12.02;70.50
77706;BME280;66874;45.274;5.880;2023-03-14T14:07:25;98468.53;;;11.70;71.13
77706;BME280;66874;45.274;5.880;2023-03-14T14:09:52;98473.81;;;11.42;70.35
77706;BME280;66874;45.274;5.880;2023-03-14T14:12:27;98471.31;;;11.11;71.22
77706;BME280;66874;45.274;5.880;2023-03-14T14:17:36;98467.72;;;10.23;71.66
77706;BME280;66874;45.274;5.880;2023-03-14T14:20:06;98486.38;;;9.75;71.27
77706;BME280;66874;45.274;5.880;2023-03-14T14:22:34;98489.06;;;9.36;72.13
77706;BME280;66874;45.274;5.880;2023-03-14T14:25:01;98500.03;;;9.13;72.85
77706;BME280;66874;45.274;5.880;2023-03-14T14:27:36;98518.63;;;8.99;74.02
77706;BME280;66874;45.274;5.880;2023-03-14T14:30:21;98527.41;;;8.94;74.74
77706;BME280;66874;45.274;5.880;2023-03-14T14:32:51;98530.81;;;8.97;74.83
77706;BME280;66874;45.274;5.880;2023-03-14T14:35:34;98528.94;;;9.04;75.10
77706;BME280;66874;45.274;5.880;2023-03-14T14:38:00;98494.97;;;9.07;73.99
77706;BME280;66874;45.274;5.880;2023-03-14T14:40:27;98481.06;;;9.05;73.46
77706;BME280;66874;45.274;5.880;2023-03-14T14:42:55;98475.91;;;9.03;74.11
77706;BME280;66874;45.274;5.880;2023-03-14T14:45:27;98492.38;;;9.05;74.35
77706;BME280;66874;45.274;5.880;2023-03-14T14:47:58;98496.50;;;9.14;74.57
77706;BME280;66874;45.274;5.880;2023-03-14T14:52:57;98500.88;;;9.15;75.17
77706;BME280;66874;45.274;5.880;2023-03-14T14:55:32;98501.88;;;9.08;75.27
77706;BME280;66874;45.274;5.880;2023-03-14T14:58:12;98521.91;;;9.08;75.68
77706;BME280;66874;45.274;5.880;2023-03-14T15:00:40;98539.31;;;9.07;75.90
77706;BME280;66874;45.274;5.880;2023-03-14T15:03:12;98541.28;;;8.96;75.83
77706;BME280;66874;45.274;5.880;2023-03-14T15:05:38;98550.16;;;8.87;75.88
77706;BME280;66874;45.274;5.880;2023-03-14T15:08:09;98535.44;;;8.83;76.17
77706;BME280;66874;45.274;5.880;2023-03-14T15:10:34;98519.75;;;8.86;76.20
77706;BME280;66874;45.274;5.880;2023-03-14T15:13:00;98528.31;;;8.93;76.25
77706;BME280;66874;45.274;5.880;2023-03-14T15:15:25;98543.91;;;8.96;76.49
77706;BME280;66874;45.274;5.880;2023-03-14T15:17:50;98583.94;;;8.93;76.63
77706;BME280;66874;45.274;5.880;2023-03-14T15:20:17;98605.94;;;8.80;76.96
77706;BME280;66874;45.274;5.880;2023-03-14T15:22:44;98599.38;;;8.59;75.39
77706;BME280;66874;45.274;5.880;2023-03-14T15:25:10;98582.44;;;8.33;72.66
77706;BME280;66874;45.274;5.880;2023-03-14T15:27:36;98599.38;;;8.08;72.17
77706;BME280;66874;45.274;5.880;2023-03-14T15:30:11;98610.91;;;7.92;73.47
77706;BME280;66874;45.274;5.880;2023-03-14T15:32:36;98615.38;;;7.83;74.24
77706;BME280;66874;45.274;5.880;2023-03-14T15:35:02;98584.25;;;7.76;73.60
77706;BME280;66874;45.274;5.880;2023-03-14T15:37:27;98584.34;;;7.73;74.24
77706;BME280;66874;45.274;5.880;2023-03-14T15:39:53;98580.72;;;7.80;74.94
77706;BME280;66874;45.274;5.880;2023-03-14T15:42:18;98582.94;;;8.04;75.58
77706;BME280;66874;45.274;5.880;2023-03-14T15:44:43;98572.00;;;8.33;76.13
77706;BME280;66874;45.274;5.880;2023-03-14T15:47:10;98582.59;;;8.72;76.67
77706;BME280;66874;45.274;5.880;2023-03-14T15:49:35;98584.69;;;9.00;76.50
77706;BME280;66874;45.274;5.880;2023-03-14T15:52:01;98575.75;;;9.12;76.58
77706;BME280;66874;45.274;5.880;2023-03-14T15:54:27;98589.44;;;9.21;76.73
77706;BME280;66874;45.274;5.880;2023-03-14T15:56:54;98596.16;;;9.33;77.27
77706;BME280;66874;45.274;5.880;2023-03-14T15:59:20;98603.69;;;9.47;77.23
77706;BME280;66874;45.274;5.880;2023-03-14T16:01:46;98597.31;;;9.59;76.95
77706;BME280;66874;45.274;5.880;2023-03-14T16:04:13;98604.31;;;9.57;76.56
77706;BME280;66874;45.274;5.880;2023-03-14T16:06:39;98598.28;;;9.54;76.05
77706;BME280;66874;45.274;5.880;2023-03-14T16:09:04;98607.81;;;9.57;76.22
77706;BME280;66874;45.274;5.880;2023-03-14T16:11:29;98598.59;;;9.41;75.96
77706;BME280;66874;45.274;5.880;2023-03-14T16:13:55;98589.16;;;9.35;75.90
77706;BME280;66874;45.274;5.880;2023-03-14T16:16:20;98587.47;;;9.33;76.01
77706;BME280;66874;45.274;5.880;2023-03-14T16:18:46;98604.06;;;9.28;75.97
77706;BME280;66874;45.274;5.880;2023-03-14T16:21:14;98609.34;;;9.25;76.24
77706;BME280;66874;45.274;5.880;2023-03-14T16:23:40;98608.59;;;9.20;76.16
77706;BME280;66874;45.274;5.880;2023-03-14T16:26:08;98607.00;;;9.15;75.81
77706;BME280;66874;45.274;5.880;2023-03-14T16:28:35;98611.50;;;9.07;75.50
77706;BME280;66874;45.274;5.880;2023-03-14T16:31:02;98613.38;;;9.00;75.53
77706;BME280;66874;45.274;5.880;2023-03-14T16:33:28;98614.44;;;8.90;75.37
77706;BME280;66874;45.274;5.880;2023-03-14T16:35:55;98615.41;;;8.86;75.45
77706;BME280;66874;45.274;5.880;2023-03-14T16:38:21;98611.03;;;8.86;75.39
77706;BME280;66874;45.274;5.880;2023-03-14T16:40:59;98612.78;;;8.86;75.44
77706;BME280;66874;45.274;5.880;2023-03-14T16:43:25;98615.44;;;8.84;75.61
77706;BME280;66874;45.274;5.880;2023-03-14T16:45:50;98608.47;;;8.83;75.88
77706;BME280;66874;45.274;5.880;2023-03-14T16:48:16;98610.19;;;8.86;75.92
77706;BME280;66874;45.274;5.880;2023-03-14T16:50:42;98613.59;;;8.89;75.87
77706;BME280;66874;45.274;5.880;2023-03-14T16:53:07;98623.19;;;8.87;75.84
77706;BME280;66874;45.274;5.880;2023-03-14T16:55:33;98619.09;;;8.74;75.97
77706;BME280;66874;45.274;5.880;2023-03-14T16:57:58;98621.91;;;8.63;75.86
77706;BME280;66874;45.274;5.880;2023-03-14T17:00:24;98616.78;;;8.59;75.79
77706;BME280;66874;45.274;5.880;2023-03-14T17:02:50;98619.53;;;8.51;75.84
77706;BME280;66874;45.274;5.880;2023-03-14T17:05:15;98617.94;;;8.42;75.91
77706;BME280;66874;45.274;5.880;2023-03-14T17:07:40;98624.13;;;8.33;75.99
77706;BME280;66874;45.274;5.880;2023-03-14T17:10:06;98630.34;;;8.25;76.09
77706;BME280;66874;45.274;5.880;2023-03-14T17:12:31;98630.53;;;8.16;76.37
77706;BME280;66874;45.274;5.880;2023-03-14T17:14:59;98636.75;;;8.05;76.98
77706;BME280;66874;45.274;5.880;2023-03-14T17:17:24;98643.88;;;7.96;77.40
77706;BME280;66874;45.274;5.880;2023-03-14T17:19:50;98656.06;;;7.92;77.40
77706;BME280;66874;45.274;5.880;2023-03-14T17:22:16;98656.97;;;7.90;77.84
77706;BME280;66874;45.274;5.880;2023-03-14T17:24:41;98661.34;;;7.88;77.62
77706;BME280;66874;45.274;5.880;2023-03-14T17:27:06;98661.41;;;7.85;77.98
77706;BME280;66874;45.274;5.880;2023-03-14T17:29:32;98670.06;;;7.83;77.97
77706;BME280;66874;45.274;5.880;2023-03-14T17:31:57;98676.16;;;7.84;78.29
77706;BME280;66874;45.274;5.880;2023-03-14T17:34:23;98676.22;;;7.81;78.43
77706;BME280;66874;45.274;5.880;2023-03-14T17:36:48;98683.13;;;7.82;78.60
77706;BME280;66874;45.274;5.880;2023-03-14T17:39:13;98684.88;;;7.80;78.58
77706;BME280;66874;45.274;5.880;2023-03-14T17:41:39;98696.19;;;7.79;78.69
77706;BME280;66874;45.274;5.880;2023-03-14T17:44:04;98699.72;;;7.76;78.56
77706;BME280;66874;45.274;5.880;2023-03-14T17:46:30;98704.09;;;7.73;78.72
77706;BME280;66874;45.274;5.880;2023-03-14T17:48:56;98712.00;;;7.65;78.85
77706;BME280;66874;45.274;5.880;2023-03-14T17:51:21;98719.00;;;7.60;78.92
77706;BME280;66874;45.274;5.880;2023-03-14T17:53:46;98725.16;;;7.54;78.96
77706;BME280;66874;45.274;5.880;2023-03-14T17:56:12;98721.72;;;7.49;79.20
77706;BME280;66874;45.274;5.880;2023-03-14T17:58:37;98720.06;;;7.44;79.40
77706;BME280;66874;45.274;5.880;2023-03-14T18:01:14;98721.88;;;7.39;79.51
77706;BME280;66874;45.274;5.880;2023-03-14T18:03:40;98728.88;;;7.32;79.39
77706;BME280;66874;45.274;5.880;2023-03-14T18:06:07;98728.91;;;7.29;79.54
77706;BME280;66874;45.274;5.880;2023-03-14T18:08:33;98738.50;;;7.25;79.80
77706;BME280;66874;45.274;5.880;2023-03-14T18:10:59;98735.06;;;7.22;79.56
77706;BME280;66874;45.274;5.880;2023-03-14T18:13:24;98743.78;;;7.19;79.74
77706;BME280;66874;45.274;5.880;2023-03-14T18:15:50;98749.91;;;7.14;79.76
77706;BME280;66874;45.274;5.880;2023-03-14T18:18:16;98753.41;;;7.09;79.80
77706;BME280;66874;45.274;5.880;2023-03-14T18:20:51;98757.75;;;7.09;79.99
77706;BME280;66874;45.274;5.880;2023-03-14T18:23:17;98769.03;;;7.06;80.13
77706;BME280;66874;45.274;5.880;2023-03-14T18:25:43;98777.69;;;7.07;80.08
77706;BME280;66874;45.274;5.880;2023-03-14T18:28:08;98773.38;;;7.06;80.00
77706;BME280;66874;45.274;5.880;2023-03-14T18:30:34;98778.59;;;7.06;80.18
77706;BME280;66874;45.274;5.880;2023-03-14T18:32:59;98782.94;;;7.05;80.16
77706;BME280;66874;45.274;5.880;2023-03-14T18:35:25;98787.31;;;7.00;80.32
77706;BME280;66874;45.274;5.880;2023-03-14T18:37:50;98783.88;;;6.95;80.40
77706;BME280;66874;45.274;5.880;2023-03-14T18:40:15;98782.19;;;6.91;80.66
77706;BME280;66874;45.274;5.880;2023-03-14T18:42:42;98782.22;;;6.88;80.46
77706;BME280;66874;45.274;5.880;2023-03-14T18:45:08;98778.78;;;6.83;80.45
77706;BME280;66874;45.274;5.880;2023-03-14T18:47:34;98779.69;;;6.80;80.56
77706;BME280;66874;45.274;5.880;2023-03-14T18:50:02;98774.56;;;6.73;80.60
77706;BME280;66874;45.274;5.880;2023-03-14T18:52:28;98780.69;;;6.64;80.71
77706;BME280;66874;45.274;5.880;2023-03-14T18:54:54;98787.66;;;6.59;80.63
77706;BME280;66874;45.274;5.880;2023-03-14T18:57:19;98785.09;;;6.57;80.76
77706;BME280;66874;45.274;5.880;2023-03-14T18:59:46;98778.16;;;6.58;80.72
77706;BME280;66874;45.274;5.880;2023-03-14T19:02:11;98785.91;;;6.59;80.92
77706;BME280;66874;45.274;5.880;2023-03-14T19:04:37;98788.53;;;6.56;80.80
77706;BME280;66874;45.274;5.880;2023-03-14T19:07:02;98798.09;;;6.53;81.05
77706;BME280;66874;45.274;5.880;2023-03-14T19:09:27;98804.19;;;6.49;80.94
77706;BME280;66874;45.274;5.880;2023-03-14T19:11:53;98795.53;;;6.45;80.93
77706;BME280;66874;45.274;5.880;2023-03-14T19:14:18;98788.63;;;6.44;81.11
77706;BME280;66874;45.274;5.880;2023-03-14T19:16:45;98792.09;;;6.45;80.89
77706;BME280;66874;45.274;5.880;2023-03-14T19:19:10;98806.84;;;6.41;81.11
77706;BME280;66874;45.274;5.880;2023-03-14T19:21:35;98806.00;;;6.38;81.12
77706;BME280;66874;45.274;5.880;2023-03-14T19:24:02;98800.84;;;6.34;81.30
77706;BME280;66874;45.274;5.880;2023-03-14T19:26:29;98819.88;;;6.35;81.45
77706;BME280;66874;45.274;5.880;2023-03-14T19:28:56;98826.81;;;6.30;81.42
77706;BME280;66874;45.274;5.880;2023-03-14T19:31:22;98821.66;;;6.25;81.57
77706;BME280;66874;45.274;5.880;2023-03-14T19:33:48;98823.41;;;6.25;81.47
77706;BME280;66874;45.274;5.880;2023-03-14T19:36:25;98830.34;;;6.21;81.53